sensor_id;sensor_type;location;lat;lon;timestamp;temperature;humidity
52656;SHT85;35474;51.032;6.998;2022-07-29T00:00:34;20.31;53.15
52656;SHT85;35474;51.032;6.998;2022-07-29T00:03:01;20.44;53.01
52656;SHT85;35474;51.032;6.998;2022-07-29T00:05:29;20.41;53.23
52656;SHT85;35474;51.032;6.998;2022-07-29T00:07:55;20.32;53.29
52656;SHT85;35474;51.032;6.998;2022-07-29T00:10:22;20.38;53.67
52656;SHT85;35474;51.032;6.998;2022-07-29T00:12:49;20.32;53.60
52656;SHT85;35474;51.032;6.998;2022-07-29T00:15:15;20.38;53.70
52656;SHT85;35474;51.032;6.998;2022-07-29T00:17:42;20.38;53.80
52656;SHT85;35474;51.032;6.998;2022-07-29T00:20:09;20.35;53.88
52656;SHT85;35474;51.032;6.998;2022-07-29T00:22:38;20.38;54.05
52656;SHT85;35474;51.032;6.998;2022-07-29T00:25:06;20.29;54.54
52656;SHT85;35474;51.032;6.998;2022-07-29T00:27:34;20.32;54.07
52656;SHT85;35474;51.032;6.998;2022-07-29T00:30:02;20.18;54.15
52656;SHT85;35474;51.032;6.998;2022-07-29T00:32:29;20.21;53.67
52656;SHT85;35474;51.032;6.998;2022-07-29T00:34:56;20.45;53.27
52656;SHT85;35474;51.032;6.998;2022-07-29T00:37:41;20.35;53.57
52656;SHT85;35474;51.032;6.998;2022-07-29T00:40:08;20.31;53.87
52656;SHT85;35474;51.032;6.998;2022-07-29T00:42:45;20.32;53.98
52656;SHT85;35474;51.032;6.998;2022-07-29T00:45:14;20.38;53.97
52656;SHT85;35474;51.032;6.998;2022-07-29T00:47:41;20.26;54.19
52656;SHT85;35474;51.032;6.998;2022-07-29T00:50:08;20.26;54.31
52656;SHT85;35474;51.032;6.998;2022-07-29T00:52:37;20.28;54.20
52656;SHT85;35474;51.032;6.998;2022-07-29T00:55:06;20.28;54.40
52656;SHT85;35474;51.032;6.998;2022-07-29T00:57:35;20.21;54.30
52656;SHT85;35474;51.032;6.998;2022-07-29T01:00:06;20.17;54.32
52656;SHT85;35474;51.032;6.998;2022-07-29T01:02:34;20.20;54.60
52656;SHT85;35474;51.032;6.998;2022-07-29T01:05:02;20.18;54.91
52656;SHT85;35474;51.032;6.998;2022-07-29T01:07:30;20.15;55.18
52656;SHT85;35474;51.032;6.998;2022-07-29T01:09:59;20.15;55.21
52656;SHT85;35474;51.032;6.998;2022-07-29T01:12:28;20.46;54.66
52656;SHT85;35474;51.032;6.998;2022-07-29T01:15:00;20.10;55.98
52656;SHT85;35474;51.032;6.998;2022-07-29T01:17:33;20.01;56.39
52656;SHT85;35474;51.032;6.998;2022-07-29T01:20:06;20.01;56.38
52656;SHT85;35474;51.032;6.998;2022-07-29T01:30:56;19.98;56.81
52656;SHT85;35474;51.032;6.998;2022-07-29T01:33:24;19.87;57.14
52656;SHT85;35474;51.032;6.998;2022-07-29T01:36:12;19.78;57.20
52656;SHT85;35474;51.032;6.998;2022-07-29T01:38:42;19.76;56.98
52656;SHT85;35474;51.032;6.998;2022-07-29T01:41:15;19.69;57.38
52656;SHT85;35474;51.032;6.998;2022-07-29T01:43:48;19.69;57.57
52656;SHT85;35474;51.032;6.998;2022-07-29T01:46:20;19.63;57.89
52656;SHT85;35474;51.032;6.998;2022-07-29T01:49:06;19.66;57.36
52656;SHT85;35474;51.032;6.998;2022-07-29T01:51:47;19.57;57.66
52656;SHT85;35474;51.032;6.998;2022-07-29T01:57:13;19.70;57.17
52656;SHT85;35474;51.032;6.998;2022-07-29T01:59:43;19.67;57.29
52656;SHT85;35474;51.032;6.998;2022-07-29T02:02:13;19.64;57.30
52656;SHT85;35474;51.032;6.998;2022-07-29T02:04:42;19.74;56.70
52656;SHT85;35474;51.032;6.998;2022-07-29T02:07:15;19.70;57.07
52656;SHT85;35474;51.032;6.998;2022-07-29T02:09:45;19.74;56.98
52656;SHT85;35474;51.032;6.998;2022-07-29T02:12:14;19.62;57.15
52656;SHT85;35474;51.032;6.998;2022-07-29T02:14:44;19.57;56.94
52656;SHT85;35474;51.032;6.998;2022-07-29T02:17:13;19.53;57.13
52656;SHT85;35474;51.032;6.998;2022-07-29T02:19:47;19.66;57.20
52656;SHT85;35474;51.032;6.998;2022-07-29T02:22:16;19.43;58.17
52656;SHT85;35474;51.032;6.998;2022-07-29T02:24:46;19.38;58.60
52656;SHT85;35474;51.032;6.998;2022-07-29T02:27:14;19.22;59.00
52656;SHT85;35474;51.032;6.998;2022-07-29T02:29:43;19.20;59.21
52656;SHT85;35474;51.032;6.998;2022-07-29T02:32:13;19.23;59.04
52656;SHT85;35474;51.032;6.998;2022-07-29T02:34:41;19.23;59.13
52656;SHT85;35474;51.032;6.998;2022-07-29T02:37:09;19.14;59.58
52656;SHT85;35474;51.032;6.998;2022-07-29T02:39:37;19.08;59.68
52656;SHT85;35474;51.032;6.998;2022-07-29T02:42:07;19.16;59.49
52656;SHT85;35474;51.032;6.998;2022-07-29T02:44:37;19.18;59.41
52656;SHT85;35474;51.032;6.998;2022-07-29T02:49:46;19.23;59.27
52656;SHT85;35474;51.032;6.998;2022-07-29T02:52:23;19.29;58.94
52656;SHT85;35474;51.032;6.998;2022-07-29T02:54:58;19.36;58.60
52656;SHT85;35474;51.032;6.998;2022-07-29T03:00:20;19.41;58.13
52656;SHT85;35474;51.032;6.998;2022-07-29T03:02:50;19.34;59.14
52656;SHT85;35474;51.032;6.998;2022-07-29T03:05:20;19.15;59.17
52656;SHT85;35474;51.032;6.998;2022-07-29T03:07:52;19.09;58.70
52656;SHT85;35474;51.032;6.998;2022-07-29T03:10:21;19.19;58.61
52656;SHT85;35474;51.032;6.998;2022-07-29T03:12:49;19.14;58.97
52656;SHT85;35474;51.032;6.998;2022-07-29T03:15:16;19.16;59.06
52656;SHT85;35474;51.032;6.998;2022-07-29T03:17:44;19.22;59.35
52656;SHT85;35474;51.032;6.998;2022-07-29T03:20:12;19.11;60.03
52656;SHT85;35474;51.032;6.998;2022-07-29T03:22:40;19.15;60.30
52656;SHT85;35474;51.032;6.998;2022-07-29T03:25:13;19.01;60.92
52656;SHT85;35474;51.032;6.998;2022-07-29T03:27:41;18.91;61.27
52656;SHT85;35474;51.032;6.998;2022-07-29T03:30:09;19.04;61.00
52656;SHT85;35474;51.032;6.998;2022-07-29T03:32:37;18.98;61.19
52656;SHT85;35474;51.032;6.998;2022-07-29T03:35:05;18.91;61.53
52656;SHT85;35474;51.032;6.998;2022-07-29T03:37:32;18.85;61.72
52656;SHT85;35474;51.032;6.998;2022-07-29T03:40:00;18.87;61.93
52656;SHT85;35474;51.032;6.998;2022-07-29T03:42:30;18.81;62.08
52656;SHT85;35474;51.032;6.998;2022-07-29T03:45:03;18.95;61.21
52656;SHT85;35474;51.032;6.998;2022-07-29T03:47:34;19.09;59.89
52656;SHT85;35474;51.032;6.998;2022-07-29T03:50:16;19.05;59.81
52656;SHT85;35474;51.032;6.998;2022-07-29T03:52:45;19.11;59.35
52656;SHT85;35474;51.032;6.998;2022-07-29T03:55:13;19.22;58.64
52656;SHT85;35474;51.032;6.998;2022-07-29T03:57:40;19.23;58.16
52656;SHT85;35474;51.032;6.998;2022-07-29T04:00:08;19.35;57.69
52656;SHT85;35474;51.032;6.998;2022-07-29T04:02:35;19.23;57.53
52656;SHT85;35474;51.032;6.998;2022-07-29T04:05:04;19.29;57.08
52656;SHT85;35474;51.032;6.998;2022-07-29T04:07:30;19.31;56.96
52656;SHT85;35474;51.032;6.998;2022-07-29T04:09:57;19.39;56.32
52656;SHT85;35474;51.032;6.998;2022-07-29T04:12:24;19.26;56.38
52656;SHT85;35474;51.032;6.998;2022-07-29T04:14:50;19.22;56.32
52656;SHT85;35474;51.032;6.998;2022-07-29T04:17:17;19.29;56.02
52656;SHT85;35474;51.032;6.998;2022-07-29T04:19:43;19.34;55.79
52656;SHT85;35474;51.032;6.998;2022-07-29T04:22:10;19.31;56.15
52656;SHT85;35474;51.032;6.998;2022-07-29T04:24:37;19.23;56.20
52656;SHT85;35474;51.032;6.998;2022-07-29T04:27:03;19.12;56.26
52656;SHT85;35474;51.032;6.998;2022-07-29T04:29:30;19.19;56.25
52656;SHT85;35474;51.032;6.998;2022-07-29T04:31:56;19.25;56.12
52656;SHT85;35474;51.032;6.998;2022-07-29T04:34:23;19.28;55.99
52656;SHT85;35474;51.032;6.998;2022-07-29T04:36:53;19.25;55.85
52656;SHT85;35474;51.032;6.998;2022-07-29T04:39:20;19.23;55.93
52656;SHT85;35474;51.032;6.998;2022-07-29T04:41:48;19.29;55.91
52656;SHT85;35474;51.032;6.998;2022-07-29T04:44:17;19.32;55.78
52656;SHT85;35474;51.032;6.998;2022-07-29T04:46:45;19.22;55.79
52656;SHT85;35474;51.032;6.998;2022-07-29T04:49:11;19.28;55.73
52656;SHT85;35474;51.032;6.998;2022-07-29T04:51:39;19.32;55.65
52656;SHT85;35474;51.032;6.998;2022-07-29T04:54:06;19.42;55.62
52656;SHT85;35474;51.032;6.998;2022-07-29T04:56:32;19.26;55.76
52656;SHT85;35474;51.032;6.998;2022-07-29T04:58:59;19.38;55.40
52656;SHT85;35474;51.032;6.998;2022-07-29T05:01:25;19.36;55.46
52656;SHT85;35474;51.032;6.998;2022-07-29T05:03:52;19.41;55.40
52656;SHT85;35474;51.032;6.998;2022-07-29T05:06:25;19.42;55.42
52656;SHT85;35474;51.032;6.998;2022-07-29T05:08:51;19.36;55.41
52656;SHT85;35474;51.032;6.998;2022-07-29T05:11:18;19.47;55.15
52656;SHT85;35474;51.032;6.998;2022-07-29T05:13:49;19.43;55.23
52656;SHT85;35474;51.032;6.998;2022-07-29T05:16:15;19.52;54.91
52656;SHT85;35474;51.032;6.998;2022-07-29T05:18:42;19.62;54.95
52656;SHT85;35474;51.032;6.998;2022-07-29T05:21:08;19.56;54.80
52656;SHT85;35474;51.032;6.998;2022-07-29T05:23:35;19.56;54.75
52656;SHT85;35474;51.032;6.998;2022-07-29T05:26:01;19.66;54.76
52656;SHT85;35474;51.032;6.998;2022-07-29T05:28:28;19.71;54.55
52656;SHT85;35474;51.032;6.998;2022-07-29T05:30:55;19.74;54.64
52656;SHT85;35474;51.032;6.998;2022-07-29T05:33:22;19.76;54.65
52656;SHT85;35474;51.032;6.998;2022-07-29T05:36:01;19.80;54.54
52656;SHT85;35474;51.032;6.998;2022-07-29T05:38:28;19.69;54.76
52656;SHT85;35474;51.032;6.998;2022-07-29T05:40:56;19.73;54.57
52656;SHT85;35474;51.032;6.998;2022-07-29T05:43:23;19.76;54.50
52656;SHT85;35474;51.032;6.998;2022-07-29T05:45:50;19.77;54.82
52656;SHT85;35474;51.032;6.998;2022-07-29T05:48:17;19.83;54.80
52656;SHT85;35474;51.032;6.998;2022-07-29T05:50:43;19.87;54.77
52656;SHT85;35474;51.032;6.998;2022-07-29T05:53:10;19.84;54.67
52656;SHT85;35474;51.032;6.998;2022-07-29T05:55:45;19.91;54.67
52656;SHT85;35474;51.032;6.998;2022-07-29T05:58:12;20.07;54.23
52656;SHT85;35474;51.032;6.998;2022-07-29T06:00:39;20.25;53.85
52656;SHT85;35474;51.032;6.998;2022-07-29T06:03:06;20.31;53.77
52656;SHT85;35474;51.032;6.998;2022-07-29T06:05:35;20.55;53.02
52656;SHT85;35474;51.032;6.998;2022-07-29T06:08:03;20.53;52.95
52656;SHT85;35474;51.032;6.998;2022-07-29T06:10:36;20.61;53.01
52656;SHT85;35474;51.032;6.998;2022-07-29T06:13:02;20.62;53.37
52656;SHT85;35474;51.032;6.998;2022-07-29T06:15:29;20.63;53.03
52656;SHT85;35474;51.032;6.998;2022-07-29T06:17:55;20.59;53.46
52656;SHT85;35474;51.032;6.998;2022-07-29T06:20:30;20.72;52.63
52656;SHT85;35474;51.032;6.998;2022-07-29T06:22:58;20.63;52.83
52656;SHT85;35474;51.032;6.998;2022-07-29T06:25:25;20.79;52.39
52656;SHT85;35474;51.032;6.998;2022-07-29T06:27:53;20.73;52.40
52656;SHT85;35474;51.032;6.998;2022-07-29T06:33:34;21.00;52.00
52656;SHT85;35474;51.032;6.998;2022-07-29T06:36:03;20.83;52.37
52656;SHT85;35474;51.032;6.998;2022-07-29T06:38:30;20.89;52.23
52656;SHT85;35474;51.032;6.998;2022-07-29T06:41:05;20.94;52.30
52656;SHT85;35474;51.032;6.998;2022-07-29T06:43:39;20.96;52.41
52656;SHT85;35474;51.032;6.998;2022-07-29T06:46:17;20.99;52.01
52656;SHT85;35474;51.032;6.998;2022-07-29T06:48:45;20.94;52.10
52656;SHT85;35474;51.032;6.998;2022-07-29T06:51:13;20.51;53.04
52656;SHT85;35474;51.032;6.998;2022-07-29T06:53:41;20.56;53.40
52656;SHT85;35474;51.032;6.998;2022-07-29T06:56:25;20.65;53.32
52656;SHT85;35474;51.032;6.998;2022-07-29T06:58:52;20.86;52.64
52656;SHT85;35474;51.032;6.998;2022-07-29T07:01:19;20.80;53.06
52656;SHT85;35474;51.032;6.998;2022-07-29T07:03:46;20.76;53.18
52656;SHT85;35474;51.032;6.998;2022-07-29T07:06:13;20.56;53.62
52656;SHT85;35474;51.032;6.998;2022-07-29T07:08:40;20.53;53.79
52656;SHT85;35474;51.032;6.998;2022-07-29T07:11:07;20.66;53.39
52656;SHT85;35474;51.032;6.998;2022-07-29T07:13:34;20.69;53.63
52656;SHT85;35474;51.032;6.998;2022-07-29T07:16:02;20.72;53.61
52656;SHT85;35474;51.032;6.998;2022-07-29T07:18:29;20.71;53.95
52656;SHT85;35474;51.032;6.998;2022-07-29T07:20:56;20.63;54.21
52656;SHT85;35474;51.032;6.998;2022-07-29T07:23:23;20.56;54.77
52656;SHT85;35474;51.032;6.998;2022-07-29T07:25:51;20.36;55.31
52656;SHT85;35474;51.032;6.998;2022-07-29T07:28:18;19.91;57.19
52656;SHT85;35474;51.032;6.998;2022-07-29T07:30:50;19.36;59.69
52656;SHT85;35474;51.032;6.998;2022-07-29T07:33:17;19.53;60.72
52656;SHT85;35474;51.032;6.998;2022-07-29T07:35:43;19.32;62.02
52656;SHT85;35474;51.032;6.998;2022-07-29T07:38:10;19.35;61.58
52656;SHT85;35474;51.032;6.998;2022-07-29T07:40:37;19.25;61.92
52656;SHT85;35474;51.032;6.998;2022-07-29T07:43:03;19.31;61.68
52656;SHT85;35474;51.032;6.998;2022-07-29T07:45:30;19.19;63.32
52656;SHT85;35474;51.032;6.998;2022-07-29T07:47:59;19.50;63.04
52656;SHT85;35474;51.032;6.998;2022-07-29T07:50:26;19.83;63.03
52656;SHT85;35474;51.032;6.998;2022-07-29T07:52:54;19.91;63.60
52656;SHT85;35474;51.032;6.998;2022-07-29T07:55:25;19.95;62.64
52656;SHT85;35474;51.032;6.998;2022-07-29T07:57:52;20.14;62.01
52656;SHT85;35474;51.032;6.998;2022-07-29T08:00:19;20.29;61.11
52656;SHT85;35474;51.032;6.998;2022-07-29T08:02:48;20.00;60.22
52656;SHT85;35474;51.032;6.998;2022-07-29T08:05:16;20.04;60.02
52656;SHT85;35474;51.032;6.998;2022-07-29T08:07:47;20.13;59.90
52656;SHT85;35474;51.032;6.998;2022-07-29T08:10:14;20.29;59.80
52656;SHT85;35474;51.032;6.998;2022-07-29T08:13:05;20.18;60.35
52656;SHT85;35474;51.032;6.998;2022-07-29T08:15:32;20.18;60.68
52656;SHT85;35474;51.032;6.998;2022-07-29T08:17:59;20.07;60.82
52656;SHT85;35474;51.032;6.998;2022-07-29T08:20:33;20.14;60.23
52656;SHT85;35474;51.032;6.998;2022-07-29T08:23:02;20.08;60.80
52656;SHT85;35474;51.032;6.998;2022-07-29T08:25:29;19.77;62.88
52656;SHT85;35474;51.032;6.998;2022-07-29T08:27:55;19.56;65.21
52656;SHT85;35474;51.032;6.998;2022-07-29T08:30:22;19.53;66.47
52656;SHT85;35474;51.032;6.998;2022-07-29T08:32:49;19.45;65.83
52656;SHT85;35474;51.032;6.998;2022-07-29T08:35:21;19.49;66.31
52656;SHT85;35474;51.032;6.998;2022-07-29T08:37:48;19.62;66.57
52656;SHT85;35474;51.032;6.998;2022-07-29T08:40:15;19.78;66.93
52656;SHT85;35474;51.032;6.998;2022-07-29T08:42:41;19.85;67.88
52656;SHT85;35474;51.032;6.998;2022-07-29T08:45:08;19.81;67.32
52656;SHT85;35474;51.032;6.998;2022-07-29T08:47:35;19.97;67.22
52656;SHT85;35474;51.032;6.998;2022-07-29T08:50:06;20.21;66.25
52656;SHT85;35474;51.032;6.998;2022-07-29T08:52:37;20.39;64.59
52656;SHT85;35474;51.032;6.998;2022-07-29T08:55:06;20.61;64.73
52656;SHT85;35474;51.032;6.998;2022-07-29T08:57:35;20.66;64.48
52656;SHT85;35474;51.032;6.998;2022-07-29T09:00:06;20.80;63.76
52656;SHT85;35474;51.032;6.998;2022-07-29T09:02:40;20.92;63.26
52656;SHT85;35474;51.032;6.998;2022-07-29T09:05:13;20.83;63.08
52656;SHT85;35474;51.032;6.998;2022-07-29T09:07:40;20.90;63.03
52656;SHT85;35474;51.032;6.998;2022-07-29T09:10:09;20.87;63.41
52656;SHT85;35474;51.032;6.998;2022-07-29T09:12:36;20.83;63.61
52656;SHT85;35474;51.032;6.998;2022-07-29T09:15:03;20.99;63.16
52656;SHT85;35474;51.032;6.998;2022-07-29T09:17:43;20.52;63.92
52656;SHT85;35474;51.032;6.998;2022-07-29T09:20:12;20.28;65.03
52656;SHT85;35474;51.032;6.998;2022-07-29T09:22:40;20.24;65.15
52656;SHT85;35474;51.032;6.998;2022-07-29T09:25:07;20.18;65.14
52656;SHT85;35474;51.032;6.998;2022-07-29T09:27:34;20.29;64.79
52656;SHT85;35474;51.032;6.998;2022-07-29T09:30:05;20.59;63.91
52656;SHT85;35474;51.032;6.998;2022-07-29T09:33:00;20.36;64.35
52656;SHT85;35474;51.032;6.998;2022-07-29T09:35:27;20.59;63.46
52656;SHT85;35474;51.032;6.998;2022-07-29T09:37:54;20.46;63.74
52656;SHT85;35474;51.032;6.998;2022-07-29T09:40:26;20.21;64.79
52656;SHT85;35474;51.032;6.998;2022-07-29T09:42:54;20.26;65.25
52656;SHT85;35474;51.032;6.998;2022-07-29T09:45:27;20.63;64.48
52656;SHT85;35474;51.032;6.998;2022-07-29T09:48:13;20.92;63.54
52656;SHT85;35474;51.032;6.998;2022-07-29T09:50:45;21.13;63.24
52656;SHT85;35474;51.032;6.998;2022-07-29T09:55:56;21.99;61.22
52656;SHT85;35474;51.032;6.998;2022-07-29T09:58:23;21.81;61.57
52656;SHT85;35474;51.032;6.998;2022-07-29T10:00:50;21.20;63.63
52656;SHT85;35474;51.032;6.998;2022-07-29T10:03:18;20.45;66.02
52656;SHT85;35474;51.032;6.998;2022-07-29T10:05:45;20.61;65.43
52656;SHT85;35474;51.032;6.998;2022-07-29T10:08:12;21.23;63.58
52656;SHT85;35474;51.032;6.998;2022-07-29T10:10:40;20.99;64.41
52656;SHT85;35474;51.032;6.998;2022-07-29T10:13:09;21.48;62.72
52656;SHT85;35474;51.032;6.998;2022-07-29T10:15:43;21.30;62.22
52656;SHT85;35474;51.032;6.998;2022-07-29T10:18:12;21.65;61.27
52656;SHT85;35474;51.032;6.998;2022-07-29T10:20:40;21.60;60.97
52656;SHT85;35474;51.032;6.998;2022-07-29T10:23:08;21.24;62.38
52656;SHT85;35474;51.032;6.998;2022-07-29T10:25:35;21.26;62.67
52656;SHT85;35474;51.032;6.998;2022-07-29T10:28:01;21.48;62.39
52656;SHT85;35474;51.032;6.998;2022-07-29T10:30:28;21.61;61.51
52656;SHT85;35474;51.032;6.998;2022-07-29T10:33:15;21.57;62.31
52656;SHT85;35474;51.032;6.998;2022-07-29T10:38:45;21.77;61.65
52656;SHT85;35474;51.032;6.998;2022-07-29T10:43:55;21.98;61.07
52656;SHT85;35474;51.032;6.998;2022-07-29T10:46:25;21.82;60.97
52656;SHT85;35474;51.032;6.998;2022-07-29T10:49:16;21.60;61.40
52656;SHT85;35474;51.032;6.998;2022-07-29T10:51:56;21.65;61.18
52656;SHT85;35474;51.032;6.998;2022-07-29T10:59:43;22.83;58.53
52656;SHT85;35474;51.032;6.998;2022-07-29T11:05:12;22.30;59.05
52656;SHT85;35474;51.032;6.998;2022-07-29T11:08:16;22.71;57.00
52656;SHT85;35474;51.032;6.998;2022-07-29T11:10:46;23.16;55.51
52656;SHT85;35474;51.032;6.998;2022-07-29T11:13:44;25.15;51.16
52656;SHT85;35474;51.032;6.998;2022-07-29T11:16:11;26.63;46.92
52656;SHT85;35474;51.032;6.998;2022-07-29T11:21:43;28.21;43.56
52656;SHT85;35474;51.032;6.998;2022-07-29T11:24:27;27.73;43.85
52656;SHT85;35474;51.032;6.998;2022-07-29T11:29:54;26.91;45.77
52656;SHT85;35474;51.032;6.998;2022-07-29T11:32:24;25.71;47.52
52656;SHT85;35474;51.032;6.998;2022-07-29T11:35:13;25.33;48.10
52656;SHT85;35474;51.032;6.998;2022-07-29T11:37:45;26.25;47.17
52656;SHT85;35474;51.032;6.998;2022-07-29T11:40:32;28.03;42.43
52656;SHT85;35474;51.032;6.998;2022-07-29T11:42:59;27.89;42.04
52656;SHT85;35474;51.032;6.998;2022-07-29T11:45:25;27.72;43.00
52656;SHT85;35474;51.032;6.998;2022-07-29T11:48:17;27.44;43.69
52656;SHT85;35474;51.032;6.998;2022-07-29T11:50:57;27.18;43.92
52656;SHT85;35474;51.032;6.998;2022-07-29T11:53:24;27.88;42.65
52656;SHT85;35474;51.032;6.998;2022-07-29T11:55:57;27.32;43.11
52656;SHT85;35474;51.032;6.998;2022-07-29T11:58:25;27.39;43.33
52656;SHT85;35474;51.032;6.998;2022-07-29T12:00:53;27.28;43.43
52656;SHT85;35474;51.032;6.998;2022-07-29T12:03:25;27.08;44.40
52656;SHT85;35474;51.032;6.998;2022-07-29T12:06:13;27.07;44.54
52656;SHT85;35474;51.032;6.998;2022-07-29T12:09:00;27.00;44.14
52656;SHT85;35474;51.032;6.998;2022-07-29T12:11:39;27.65;42.98
52656;SHT85;35474;51.032;6.998;2022-07-29T12:14:06;27.83;42.08
52656;SHT85;35474;51.032;6.998;2022-07-29T12:16:35;28.13;41.18
52656;SHT85;35474;51.032;6.998;2022-07-29T12:19:04;28.29;40.49
52656;SHT85;35474;51.032;6.998;2022-07-29T12:21:44;27.15;41.48
52656;SHT85;35474;51.032;6.998;2022-07-29T12:24:21;26.80;42.44
52656;SHT85;35474;51.032;6.998;2022-07-29T12:26:53;26.22;42.56
52656;SHT85;35474;51.032;6.998;2022-07-29T12:29:20;27.30;40.58
52656;SHT85;35474;51.032;6.998;2022-07-29T12:32:01;27.49;39.44
52656;SHT85;35474;51.032;6.998;2022-07-29T12:34:30;27.62;39.40
52656;SHT85;35474;51.032;6.998;2022-07-29T12:36:58;28.54;38.45
52656;SHT85;35474;51.032;6.998;2022-07-29T12:39:25;29.62;36.79
52656;SHT85;35474;51.032;6.998;2022-07-29T12:41:54;28.91;38.33
52656;SHT85;35474;51.032;6.998;2022-07-29T12:44:46;28.67;38.21
52656;SHT85;35474;51.032;6.998;2022-07-29T12:47:14;27.93;38.36
52656;SHT85;35474;51.032;6.998;2022-07-29T12:49:42;27.69;38.66
52656;SHT85;35474;51.032;6.998;2022-07-29T12:52:24;27.90;37.89
52656;SHT85;35474;51.032;6.998;2022-07-29T12:54:58;28.64;37.41
52656;SHT85;35474;51.032;6.998;2022-07-29T12:57:26;29.74;36.15
52656;SHT85;35474;51.032;6.998;2022-07-29T13:02:37;30.10;35.54
52656;SHT85;35474;51.032;6.998;2022-07-29T13:05:05;28.56;37.79
52656;SHT85;35474;51.032;6.998;2022-07-29T13:07:32;28.30;38.62
52656;SHT85;35474;51.032;6.998;2022-07-29T13:10:21;27.37;40.30
52656;SHT85;35474;51.032;6.998;2022-07-29T13:13:06;28.00;39.43
52656;SHT85;35474;51.032;6.998;2022-07-29T13:15:34;28.75;37.97
52656;SHT85;35474;51.032;6.998;2022-07-29T13:18:01;29.42;36.13
52656;SHT85;35474;51.032;6.998;2022-07-29T13:20:28;28.65;37.07
52656;SHT85;35474;51.032;6.998;2022-07-29T13:23:01;29.05;36.92
52656;SHT85;35474;51.032;6.998;2022-07-29T13:25:29;29.39;36.25
52656;SHT85;35474;51.032;6.998;2022-07-29T13:27:58;29.45;36.66
52656;SHT85;35474;51.032;6.998;2022-07-29T13:30:25;29.47;37.24
52656;SHT85;35474;51.032;6.998;2022-07-29T13:32:52;28.82;37.26
52656;SHT85;35474;51.032;6.998;2022-07-29T13:35:19;28.71;37.55
52656;SHT85;35474;51.032;6.998;2022-07-29T13:37:46;28.78;37.34
52656;SHT85;35474;51.032;6.998;2022-07-29T13:40:13;28.50;37.26
52656;SHT85;35474;51.032;6.998;2022-07-29T13:42:40;29.30;37.06
52656;SHT85;35474;51.032;6.998;2022-07-29T13:45:08;28.87;38.99
52656;SHT85;35474;51.032;6.998;2022-07-29T13:47:35;27.28;42.36
52656;SHT85;35474;51.032;6.998;2022-07-29T13:50:03;27.03;43.13
52656;SHT85;35474;51.032;6.998;2022-07-29T13:52:32;28.43;40.29
52656;SHT85;35474;51.032;6.998;2022-07-29T13:54:59;29.56;38.14
52656;SHT85;35474;51.032;6.998;2022-07-29T13:57:26;29.18;37.64
52656;SHT85;35474;51.032;6.998;2022-07-29T13:59:53;29.18;38.19
52656;SHT85;35474;51.032;6.998;2022-07-29T14:02:19;29.02;38.24
52656;SHT85;35474;51.032;6.998;2022-07-29T14:04:51;28.89;38.90
52656;SHT85;35474;51.032;6.998;2022-07-29T14:07:18;28.77;38.99
52656;SHT85;35474;51.032;6.998;2022-07-29T14:09:44;28.57;39.81
52656;SHT85;35474;51.032;6.998;2022-07-29T14:12:11;29.12;38.37
52656;SHT85;35474;51.032;6.998;2022-07-29T14:14:38;28.40;39.43
52656;SHT85;35474;51.032;6.998;2022-07-29T14:17:04;28.06;40.43
52656;SHT85;35474;51.032;6.998;2022-07-29T14:19:33;27.89;40.75
52656;SHT85;35474;51.032;6.998;2022-07-29T14:22:05;28.20;40.14
52656;SHT85;35474;51.032;6.998;2022-07-29T14:24:33;28.74;38.99
52656;SHT85;35474;51.032;6.998;2022-07-29T14:27:03;29.45;37.78
52656;SHT85;35474;51.032;6.998;2022-07-29T14:29:30;28.74;38.23
52656;SHT85;35474;51.032;6.998;2022-07-29T14:32:04;28.96;37.72
52656;SHT85;35474;51.032;6.998;2022-07-29T14:34:32;29.18;37.92
52656;SHT85;35474;51.032;6.998;2022-07-29T14:36:59;29.78;36.78
52656;SHT85;35474;51.032;6.998;2022-07-29T14:39:25;29.74;37.31
52656;SHT85;35474;51.032;6.998;2022-07-29T14:41:57;30.15;36.22
52656;SHT85;35474;51.032;6.998;2022-07-29T14:44:24;30.42;36.16
52656;SHT85;35474;51.032;6.998;2022-07-29T14:46:59;30.23;35.98
52656;SHT85;35474;51.032;6.998;2022-07-29T14:49:33;30.07;36.21
52656;SHT85;35474;51.032;6.998;2022-07-29T14:51:59;30.59;35.16
52656;SHT85;35474;51.032;6.998;2022-07-29T14:54:26;30.73;34.76
52656;SHT85;35474;51.032;6.998;2022-07-29T14:56:53;30.62;35.37
52656;SHT85;35474;51.032;6.998;2022-07-29T14:59:22;31.00;34.95
52656;SHT85;35474;51.032;6.998;2022-07-29T15:01:49;31.10;34.89
52656;SHT85;35474;51.032;6.998;2022-07-29T15:04:16;30.56;35.96
52656;SHT85;35474;51.032;6.998;2022-07-29T15:06:42;28.09;39.08
52656;SHT85;35474;51.032;6.998;2022-07-29T15:09:09;28.34;39.51
52656;SHT85;35474;51.032;6.998;2022-07-29T15:11:36;29.51;37.72
52656;SHT85;35474;51.032;6.998;2022-07-29T15:14:04;28.84;38.56
52656;SHT85;35474;51.032;6.998;2022-07-29T15:16:31;28.14;39.86
52656;SHT85;35474;51.032;6.998;2022-07-29T15:18:59;28.60;38.80
52656;SHT85;35474;51.032;6.998;2022-07-29T15:21:26;28.81;37.72
52656;SHT85;35474;51.032;6.998;2022-07-29T15:23:53;27.75;38.83
52656;SHT85;35474;51.032;6.998;2022-07-29T15:26:19;28.77;37.54
52656;SHT85;35474;51.032;6.998;2022-07-29T15:28:47;28.88;37.11
52656;SHT85;35474;51.032;6.998;2022-07-29T15:31:14;28.44;36.38
52656;SHT85;35474;51.032;6.998;2022-07-29T15:33:41;27.28;38.54
52656;SHT85;35474;51.032;6.998;2022-07-29T15:36:07;28.08;38.64
52656;SHT85;35474;51.032;6.998;2022-07-29T15:38:34;28.30;38.53
52656;SHT85;35474;51.032;6.998;2022-07-29T15:41:07;27.76;39.17
52656;SHT85;35474;51.032;6.998;2022-07-29T15:43:33;27.42;39.57
52656;SHT85;35474;51.032;6.998;2022-07-29T15:46:01;26.82;40.71
52656;SHT85;35474;51.032;6.998;2022-07-29T15:48:46;27.27;40.61
52656;SHT85;35474;51.032;6.998;2022-07-29T15:51:13;27.72;40.11
52656;SHT85;35474;51.032;6.998;2022-07-29T15:53:40;27.46;40.10
52656;SHT85;35474;51.032;6.998;2022-07-29T15:56:07;27.28;40.32
52656;SHT85;35474;51.032;6.998;2022-07-29T15:58:33;28.03;39.03
52656;SHT85;35474;51.032;6.998;2022-07-29T16:01:00;28.61;38.22
52656;SHT85;35474;51.032;6.998;2022-07-29T16:03:27;28.30;38.57
52656;SHT85;35474;51.032;6.998;2022-07-29T16:05:55;28.33;38.54
52656;SHT85;35474;51.032;6.998;2022-07-29T16:08:22;28.57;38.26
52656;SHT85;35474;51.032;6.998;2022-07-29T16:10:48;28.99;37.58
52656;SHT85;35474;51.032;6.998;2022-07-29T16:13:15;29.02;37.25
52656;SHT85;35474;51.032;6.998;2022-07-29T16:15:46;28.33;38.15
52656;SHT85;35474;51.032;6.998;2022-07-29T16:18:28;28.54;37.78
52656;SHT85;35474;51.032;6.998;2022-07-29T16:20:55;28.75;37.11
52656;SHT85;35474;51.032;6.998;2022-07-29T16:23:22;28.78;36.35
52656;SHT85;35474;51.032;6.998;2022-07-29T16:25:49;28.72;35.95
52656;SHT85;35474;51.032;6.998;2022-07-29T16:28:25;28.21;36.45
52656;SHT85;35474;51.032;6.998;2022-07-29T16:30:52;27.66;38.10